Haskell, Texas
Current Conditions -  °F | °C
As of 11:52 PM on Thursday 18 Dec 2014 (Local Time) from KABI Reporting Station
Overcast Overcast  
Wind Chill: 40°   Ceiling: 900
Heat Index: 44°   Visibility: 10mi
Dew Point: 39°   Wind: 7mph
Humidity: 82%   Direction: 40°NE
Pressure: 30.16"   Gusts: NA
Location:  33.16°N, 99.73°W
Report Text: KABI 190552Z 04006KT 10SM OVC009 07/04 A3016 RMK AO2 SLP205 T00670039 10111 20067 401830056 51003
Loading
Personal Weather Stations






























Interactive Weather Map New forecast layout! Learn more

10-Day Weather Forecast

Advertisements
Track Severe Weather on mobile